Time;durP1;ratioP1;P1;durP2;ratioP2;P2;SDS_P1;SDS_P2;PMS_P1;PMS_P2;Temp;Humidity;BMP_temperature;BMP_pressure;BME280_temperature;BME280_humidity;BME280_pressure;Samples;Min_cycle;Max_cycle;Signal;HPM_P1;HPM_P2
2023/10/01 00:01:36;;;;;;;4.28;3.90;;;;;;;16.72;nan;95408.22;5048544;28;20249;-66
2023/10/01 00:04:04;;;;;;;7.47;4.93;;;;;;;16.68;nan;95409.28;5048086;28;20665;-66
2023/10/01 00:06:31;;;;;;;9.52;4.82;;;;;;;16.60;nan;95401.94;5050398;28;20634;-65
2023/10/01 00:08:59;;;;;;;5.45;4.93;;;;;;;16.64;nan;95397.50;5049409;28;20215;-65
2023/10/01 00:11:26;;;;;;;9.35;4.20;;;;;;;16.61;nan;95401.03;5050261;28;20199;-65
2023/10/01 00:13:53;;;;;;;4.63;4.32;;;;;;;16.53;nan;95399.78;5049562;28;20326;-66
2023/10/01 00:16:20;;;;;;;5.22;4.63;;;;;;;16.31;nan;95392.38;5049987;28;20634;-65
2023/10/01 00:18:47;;;;;;;5.72;4.20;;;;;;;16.31;nan;95407.75;5049612;28;20195;-66
2023/10/01 00:21:13;;;;;;;4.97;4.57;;;;;;;16.15;nan;95399.16;5049757;28;20306;-65
2023/10/01 00:23:40;;;;;;;6.60;4.93;;;;;;;16.18;nan;95399.84;5049591;28;20643;-66
2023/10/01 00:26:10;;;;;;;10.55;5.18;;;;;;;16.18;nan;95399.84;5049503;28;20207;-65
2023/10/01 00:28:36;;;;;;;4.82;4.32;;;;;;;16.14;nan;95400.06;5049163;28;20260;-66
2023/10/01 00:31:03;;;;;;;12.70;4.63;;;;;;;16.26;nan;95405.41;5049689;28;20700;-64
2023/10/01 00:33:30;;;;;;;5.43;4.88;;;;;;;16.26;nan;95394.31;5049039;28;20637;-65
2023/10/01 00:35:56;;;;;;;6.93;4.95;;;;;;;16.18;nan;95407.53;5049709;28;20203;-66
2023/10/01 00:38:23;;;;;;;8.20;4.85;;;;;;;16.22;nan;95403.91;5048901;28;20195;-65
2023/10/01 00:40:50;;;;;;;4.88;4.43;;;;;;;16.21;nan;95397.13;5049481;28;20229;-65
2023/10/01 00:43:25;;;;;;;11.13;4.90;;;;;;;16.08;nan;95398.66;5049187;28;20203;-66
2023/10/01 00:45:52;;;;;;;4.00;3.80;;;;;;;15.98;nan;95402.56;5049135;28;20285;-66
2023/10/01 00:48:22;;;;;;;5.22;4.30;;;;;;;15.97;nan;95400.91;5049743;28;20234;-68
2023/10/01 00:50:50;;;;;;;5.32;4.80;;;;;;;15.85;nan;95397.19;5049174;28;20199;-65
2023/10/01 00:53:17;;;;;;;5.13;4.47;;;;;;;15.90;nan;95399.53;5049693;28;20204;-66
2023/10/01 00:55:44;;;;;;;5.47;4.63;;;;;;;15.96;nan;95394.13;5049028;28;20229;-66
2023/10/01 00:58:11;;;;;;;6.25;4.50;;;;;;;15.97;nan;95400.91;5053035;28;20198;-66
2023/10/01 01:00:39;;;;;;;4.32;4.05;;;;;;;16.04;nan;95402.25;5052769;28;20250;-66
2023/10/01 01:03:08;;;;;;;4.72;4.32;;;;;;;15.99;nan;95399.09;5053093;28;20211;-64
2023/10/01 01:05:37;;;;;;;5.93;5.15;;;;;;;15.88;nan;95401.34;5052810;28;20774;-65
2023/10/01 01:08:07;;;;;;;5.80;4.65;;;;;;;15.88;nan;95401.34;5052956;28;20203;-66
2023/10/01 01:10:40;;;;;;;5.53;4.72;;;;;;;15.81;nan;95400.00;5052867;28;20299;-66
2023/10/01 01:13:07;;;;;;;6.05;4.47;;;;;;;15.85;nan;95401.47;5053062;28;20597;-66
2023/10/01 01:15:34;;;;;;;5.28;4.82;;;;;;;15.81;nan;95394.88;5052678;28;20203;-66
2023/10/01 01:18:06;;;;;;;8.93;5.03;;;;;;;15.74;nan;95398.63;5052822;28;20256;-65
2023/10/01 01:20:36;;;;;;;4.70;4.30;;;;;;;15.75;nan;95395.16;5052610;28;20250;-65
2023/10/01 01:23:05;;;;;;;8.07;5.20;;;;;;;15.74;nan;95403.75;5052457;28;20264;-66
2023/10/01 01:25:32;;;;;;;7.43;5.43;;;;;;;15.78;nan;95400.16;5052531;28;20257;-65
2023/10/01 01:27:59;;;;;;;10.82;5.00;;;;;;;15.74;nan;95401.19;5052067;28;20230;-65
2023/10/01 01:30:29;;;;;;;10.57;5.32;;;;;;;15.69;nan;95398.00;5052481;28;20223;-66
2023/10/01 01:32:57;;;;;;;7.60;4.78;;;;;;;15.78;nan;95400.16;5052240;28;20286;-66
2023/10/01 01:35:28;;;;;;;6.13;4.90;;;;;;;15.73;nan;95389.28;5052420;28;20207;-66
2023/10/01 01:37:58;;;;;;;8.38;5.20;;;;;;;15.86;nan;95393.72;5052394;28;20281;-66
2023/10/01 01:40:31;;;;;;;5.63;5.18;;;;;;;15.72;nan;95392.75;5052368;28;20202;-66
2023/10/01 01:43:04;;;;;;;7.00;5.00;;;;;;;15.68;nan;95397.19;5051397;28;20209;-66
2023/10/01 01:45:33;;;;;;;7.13;4.63;;;;;;;15.60;nan;95392.41;5052278;28;20199;-64
2023/10/01 01:48:00;;;;;;;10.68;5.25;;;;;;;15.56;nan;95388.38;5048078;28;20656;-66
2023/10/01 01:50:27;;;;;;;6.57;4.63;;;;;;;15.52;nan;95391.94;5049726;28;20195;-66
2023/10/01 01:52:57;;;;;;;5.80;5.28;;;;;;;15.50;nan;95391.19;5050187;28;20670;-65
2023/10/01 01:55:29;;;;;;;5.55;5.10;;;;;;;15.48;nan;95395.56;5050003;28;20672;-66
2023/10/01 01:58:06;;;;;;;5.10;4.57;;;;;;;15.42;nan;95393.28;5050194;28;20203;-65
2023/10/01 02:00:37;;;;;;;13.23;5.18;;;;;;;15.45;nan;95393.13;5049964;28;20203;-66
2023/10/01 02:03:10;;;;;;;9.98;5.35;;;;;;;15.43;nan;95384.69;5049659;28;20680;-66
2023/10/01 02:05:41;;;;;;;5.80;5.35;;;;;;;15.43;nan;95389.81;5049892;28;20207;-66
2023/10/01 02:08:10;;;;;;;5.40;4.82;;;;;;;15.35;nan;95386.78;5049381;28;20219;-66
2023/10/01 02:10:44;;;;;;;8.38;5.90;;;;;;;15.24;nan;95392.41;5050323;28;20207;-65
2023/10/01 02:13:16;;;;;;;7.07;5.72;;;;;;;15.15;nan;95384.31;5051498;28;20206;-66
2023/10/01 02:15:45;;;;;;;7.97;5.38;;;;;;;15.28;nan;95390.53;5039895;28;20199;-65
2023/10/01 02:18:16;;;;;;;8.15;5.13;;;;;;;15.16;nan;95391.91;5050954;28;20203;-66
2023/10/01 02:20:44;;;;;;;9.00;5.13;;;;;;;15.22;nan;95390.81;5050861;28;20716;-65
2023/10/01 02:23:12;;;;;;;5.90;5.20;;;;;;;15.21;nan;95394.28;5051318;28;20594;-65
2023/10/01 02:25:45;;;;;;;5.53;5.03;;;;;;;15.01;nan;95392.63;5051163;28;20258;-66
2023/10/01 02:28:14;;;;;;;8.77;4.97;;;;;;;14.97;nan;95394.50;5051091;28;20234;-64
2023/10/01 02:30:44;;;;;;;6.80;5.80;;;;;;;14.89;nan;95388.88;5050991;28;20219;-66
2023/10/01 02:33:17;;;;;;;7.30;5.47;;;;;;;14.89;nan;95388.88;5051630;28;20209;-65
2023/10/01 02:35:46;;;;;;;10.23;5.78;;;;;;;14.75;nan;95386.13;5050950;28;20203;-66
2023/10/01 02:41:15;;;;;;;6.38;5.28;;;;;;;14.68;nan;95394.97;4987920;28;20225;-65
2023/10/01 02:43:42;;;;;;;6.10;5.50;;;;;;;14.67;nan;95383.06;4985458;28;20213;-65
2023/10/01 02:46:10;;;;;;;6.15;5.55;;;;;;;14.71;nan;95383.78;5015681;28;20207;-66
2023/10/01 02:48:40;;;;;;;5.60;5.20;;;;;;;14.69;nan;95386.41;5050196;28;20199;-66
2023/10/01 02:51:15;;;;;;;6.30;5.50;;;;;;;14.61;nan;95380.78;5051072;28;20199;-65
2023/10/01 02:54:01;;;;;;;10.73;5.80;;;;;;;14.56;nan;95385.28;5049169;28;20198;-66
2023/10/01 02:56:32;;;;;;;7.75;5.13;;;;;;;14.53;nan;95385.44;5050769;28;20257;-65
2023/10/01 02:59:07;;;;;;;6.28;5.63;;;;;;;14.52;nan;95383.75;5050784;28;20206;-65
2023/10/01 03:01:34;;;;;;;6.22;5.50;;;;;;;14.47;nan;95381.41;5051099;28;20243;-65
2023/10/01 03:04:05;;;;;;;5.93;5.47;;;;;;;14.47;nan;95388.25;5051006;28;20199;-65
2023/10/01 03:06:33;;;;;;;8.45;6.20;;;;;;;14.47;nan;95390.81;5051249;28;20203;-65
2023/10/01 03:09:04;;;;;;;6.35;5.35;;;;;;;14.45;nan;95387.47;5051078;28;20207;-66
2023/10/01 03:11:41;;;;;;;6.72;5.90;;;;;;;14.42;nan;95385.06;5050674;28;20199;-65
2023/10/01 03:14:18;;;;;;;11.98;5.75;;;;;;;14.48;nan;95392.47;5050899;28;20202;-64
2023/10/01 03:16:53;;;;;;;6.70;6.05;;;;;;;14.45;nan;95388.31;5050961;28;20260;-65
2023/10/01 03:19:25;;;;;;;6.38;5.78;;;;;;;14.56;nan;95390.41;5050369;28;20276;-65
2023/10/01 03:24:42;;;;;;;9.27;7.30;;;;;;;14.46;nan;95384.84;5050613;28;20264;-65
2023/10/01 03:27:20;;;;;;;9.65;6.97;;;;;;;14.43;nan;95389.28;5050212;28;20235;-65
2023/10/01 03:29:48;;;;;;;11.23;6.30;;;;;;;14.48;nan;95392.47;5050507;28;20232;-65
2023/10/01 03:32:28;;;;;;;6.07;5.57;;;;;;;14.46;nan;95389.97;5050536;28;20310;-65
2023/10/01 03:34:55;;;;;;;8.75;6.13;;;;;;;14.41;nan;95388.50;5050587;28;20252;-65
2023/10/01 03:37:22;;;;;;;7.45;6.32;;;;;;;14.48;nan;95392.47;5050500;28;20226;-64
2023/10/01 03:39:52;;;;;;;6.88;5.80;;;;;;;14.46;nan;95384.84;5050367;28;20629;-65
2023/10/01 03:42:20;;;;;;;6.22;5.50;;;;;;;14.42;nan;95391.00;5050507;28;20272;-65
2023/10/01 03:47:34;;;;;;;10.27;5.78;;;;;;;14.39;nan;95398.75;5049396;28;20305;-64
2023/10/01 03:50:01;;;;;;;8.95;6.65;;;;;;;14.33;nan;95395.66;5047993;28;20303;-65
2023/10/01 03:52:29;;;;;;;9.98;6.63;;;;;;;14.30;nan;95389.78;5048739;28;20198;-65
2023/10/01 03:55:15;;;;;;;7.85;7.15;;;;;;;14.30;nan;95394.91;5047791;28;20203;-66
2023/10/01 03:58:05;;;;;;;11.57;6.53;;;;;;;14.28;nan;95396.69;5048499;28;20203;-65
2023/10/01 04:00:34;;;;;;;12.15;6.65;;;;;;;14.10;nan;95394.91;5048059;28;20203;-65
2023/10/01 04:03:02;;;;;;;10.18;6.70;;;;;;;14.03;nan;95405.44;5060439;28;20218;-65
2023/10/01 04:05:33;;;;;;;9.25;6.53;;;;;;;14.07;nan;95407.81;5048296;28;20261;-66
2023/10/01 04:08:06;;;;;;;7.88;6.30;;;;;;;14.13;nan;95401.59;5048200;28;20199;-66
2023/10/01 04:10:34;;;;;;;8.05;6.78;;;;;;;14.27;nan;95405.25;5049266;28;20584;-66
2023/10/01 04:13:12;;;;;;;11.02;7.03;;;;;;;14.33;nan;95405.88;5049064;28;20256;-65
2023/10/01 04:15:41;;;;;;;9.40;6.72;;;;;;;14.36;nan;95409.13;5049425;28;20202;-65
2023/10/01 04:18:21;;;;;;;12.75;7.05;;;;;;;14.27;nan;95405.25;5049576;28;20637;-65
2023/10/01 04:21:17;;;;;;;9.93;6.97;;;;;;;14.22;nan;95412.28;5049417;28;20198;-66
2023/10/01 04:23:40;;;;;;;10.68;7.72;;;;;;;14.08;nan;95404.38;5050024;28;20660;-65
2023/10/01 04:26:13;;;;;;;12.05;7.05;;;;;;;14.17;nan;95403.13;5049875;28;20557;-66
2023/10/01 04:28:44;;;;;;;15.60;8.27;;;;;;;14.41;nan;95398.72;5049656;28;20286;-65
2023/10/01 04:31:14;;;;;;;10.77;7.25;;;;;;;14.38;nan;95403.94;5049248;28;20723;-65
2023/10/01 04:33:44;;;;;;;11.52;6.47;;;;;;;14.26;nan;95408.69;5053682;28;20210;-65
2023/10/01 04:36:11;;;;;;;8.02;6.45;;;;;;;14.27;nan;95405.25;5053281;28;20586;-66
2023/10/01 04:38:41;;;;;;;11.93;7.22;;;;;;;14.34;nan;95415.22;5053435;28;20290;-65
2023/10/01 04:41:12;;;;;;;14.50;5.95;;;;;;;14.38;nan;95414.16;5053514;28;20317;-65
2023/10/01 04:43:51;;;;;;;6.82;6.05;;;;;;;14.52;nan;95419.56;5053443;28;20203;-65
2023/10/01 04:46:20;;;;;;;17.10;6.40;;;;;;;14.60;nan;95427.72;5053452;28;20210;-65
2023/10/01 04:48:47;;;;;;;12.45;6.30;;;;;;;14.76;nan;95427.91;5052920;28;20206;-66
2023/10/01 04:51:13;;;;;;;7.00;5.82;;;;;;;14.82;nan;95433.59;5052828;28;20207;-65
2023/10/01 04:53:46;;;;;;;18.20;6.47;;;;;;;14.90;nan;95434.06;5053031;28;20636;-66
2023/10/01 04:56:20;;;;;;;8.45;6.22;;;;;;;15.05;nan;95429.16;5053268;28;20282;-65
2023/10/01 04:58:51;;;;;;;8.95;6.50;;;;;;;15.11;nan;95434.00;5053058;28;20671;-64
2023/10/01 05:01:23;;;;;;;10.10;6.70;;;;;;;15.24;nan;95435.09;5052650;28;20211;-65
2023/10/01 05:03:52;;;;;;;6.13;5.53;;;;;;;15.46;nan;95440.91;5051451;28;20230;-66
2023/10/01 05:06:19;;;;;;;11.70;6.00;;;;;;;15.63;nan;95443.50;5027160;28;20203;-61
2023/10/01 05:08:49;;;;;;;9.60;6.28;;;;;;;15.90;nan;95440.53;5016368;28;20361;-63
2023/10/01 05:11:21;;;;;;;10.40;5.90;;;;;;;16.04;nan;95435.59;5031083;28;20569;-63
2023/10/01 05:13:51;;;;;;;8.82;7.65;;;;;;;16.19;nan;95454.50;5034071;28;20278;-62
2023/10/01 05:16:19;;;;;;;15.82;11.77;;;;;;;16.29;nan;95446.31;5037448;28;20203;-64
2023/10/01 05:18:48;;;;;;;11.45;9.27;;;;;;;16.31;nan;95457.31;5039237;28;20201;-64
2023/10/01 05:21:15;;;;;;;10.57;8.07;;;;;;;16.39;nan;95458.66;5036068;28;20199;-64
2023/10/01 05:23:44;;;;;;;8.93;8.13;;;;;;;16.55;nan;95459.56;5037939;28;20231;-65
2023/10/01 05:26:11;;;;;;;12.75;8.85;;;;;;;16.50;nan;95462.34;5037348;28;20291;-65
2023/10/01 05:28:41;;;;;;;14.50;7.50;;;;;;;16.61;nan;95472.06;5035537;28;20260;-63
2023/10/01 05:31:13;;;;;;;13.10;10.68;;;;;;;16.65;nan;95471.03;5039932;28;20627;-66
2023/10/01 05:33:42;;;;;;;20.85;14.07;;;;;;;16.81;nan;95471.91;5032964;28;20253;-64
2023/10/01 05:36:08;;;;;;;19.05;14.55;;;;;;;16.91;nan;95464.56;5034846;28;20202;-65
2023/10/01 05:38:36;;;;;;;16.75;12.95;;;;;;;17.15;nan;95467.56;5037370;28;20234;-67
2023/10/01 05:41:04;;;;;;;16.23;10.05;;;;;;;17.31;nan;95466.69;5030089;28;20204;-64
2023/10/01 05:43:35;;;;;;;14.55;10.73;;;;;;;17.59;nan;95476.28;5034571;28;20621;-62
2023/10/01 05:46:02;;;;;;;15.10;8.30;;;;;;;17.67;nan;95468.22;5039525;28;20199;-64
2023/10/01 05:48:32;;;;;;;15.68;11.05;;;;;;;18.06;nan;95475.47;5038044;28;21696;-63
2023/10/01 05:50:59;;;;;;;17.77;9.90;;;;;;;18.13;nan;95469.03;5030930;28;20225;-64
2023/10/01 05:53:26;;;;;;;21.83;14.15;;;;;;;18.33;nan;95462.75;5035427;28;20230;-64
2023/10/01 05:55:54;;;;;;;15.07;11.07;;;;;;;18.49;nan;95460.13;5029984;28;20215;-64
2023/10/01 05:58:21;;;;;;;23.17;16.95;;;;;;;18.66;nan;95465.16;5031941;28;20302;-66
2023/10/01 06:00:56;;;;;;;10.18;8.95;;;;;;;18.78;nan;95459.28;5029379;28;20274;-66
2023/10/01 06:03:24;;;;;;;11.02;9.25;;;;;;;18.89;nan;95467.19;5035326;28;20325;-64
2023/10/01 06:05:57;;;;;;;11.45;9.63;;;;;;;19.13;nan;95461.47;5035134;28;20752;-63
2023/10/01 06:08:25;;;;;;;10.13;7.63;;;;;;;19.15;nan;95462.22;5035688;28;20250;-66
2023/10/01 06:11:04;;;;;;;9.93;8.95;;;;;;;19.16;nan;95463.88;5032782;28;20200;-64
2023/10/01 06:13:31;;;;;;;8.95;8.07;;;;;;;19.30;nan;95461.28;5035483;28;20205;-63
2023/10/01 06:16:11;;;;;;;11.43;7.05;;;;;;;19.25;nan;95464.16;5035044;28;20668;-66
2023/10/01 06:18:41;;;;;;;10.18;7.63;;;;;;;19.41;nan;95450.31;5032246;28;21329;-65
2023/10/01 06:21:10;;;;;;;8.75;7.25;;;;;;;19.61;nan;95455.06;5036174;28;20206;-63
2023/10/01 06:23:49;;;;;;;7.60;6.25;;;;;;;19.96;nan;95455.44;5028945;28;20233;-62
2023/10/01 06:26:20;;;;;;;9.20;7.68;;;;;;;20.52;nan;95456.09;5035495;28;20206;-62
2023/10/01 06:28:47;;;;;;;8.10;7.03;;;;;;;21.75;nan;95459.69;5035462;28;20700;-64
2023/10/01 06:31:16;;;;;;;7.70;7.00;;;;;;;23.72;nan;95442.19;5040955;28;20248;-62
2023/10/01 06:33:44;;;;;;;7.88;7.18;;;;;;;25.23;nan;95452.28;5034457;28;20787;-64
2023/10/01 06:36:21;;;;;;;15.48;6.53;;;;;;;25.52;nan;95447.97;5036665;28;20754;-66
2023/10/01 06:38:48;;;;;;;7.65;6.68;;;;;;;25.11;nan;95458.53;5036600;28;20254;-66
2023/10/01 06:41:18;;;;;;;7.72;6.93;;;;;;;24.22;nan;95458.06;5040896;28;20199;-63
2023/10/01 06:43:48;;;;;;;9.38;6.97;;;;;;;23.24;nan;95462.38;5037700;28;20361;-65
2023/10/01 06:46:21;;;;;;;9.30;7.15;;;;;;;22.60;nan;95468.97;5035942;28;20576;-66
2023/10/01 06:48:49;;;;;;;7.25;6.45;;;;;;;22.56;nan;95472.72;5037847;28;20207;-62
2023/10/01 06:51:21;;;;;;;9.02;7.05;;;;;;;22.29;nan;95473.81;5037083;28;20262;-61
2023/10/01 06:53:53;;;;;;;9.35;8.25;;;;;;;22.45;nan;95475.31;5034885;28;20199;-65
2023/10/01 06:56:21;;;;;;;11.50;8.10;;;;;;;22.76;nan;95476.44;5034094;28;20213;-66
2023/10/01 07:01:42;;;;;;;13.73;9.15;;;;;;;22.49;nan;95479.31;5034414;28;20210;-65
2023/10/01 07:04:09;;;;;;;10.88;8.13;;;;;;;22.44;nan;95489.19;5036115;28;20233;-65
2023/10/01 07:06:38;;;;;;;14.35;8.40;;;;;;;22.17;nan;95492.03;5036290;28;20211;-66
2023/10/01 07:09:24;;;;;;;12.60;9.10;;;;;;;22.12;nan;95486.34;5034676;28;20216;-65
2023/10/01 07:11:51;;;;;;;9.73;8.10;;;;;;;22.58;nan;95494.16;5036006;28;20207;-65
2023/10/01 07:14:29;;;;;;;9.40;8.55;;;;;;;23.13;nan;95482.28;5035929;28;20230;-63
2023/10/01 07:16:57;;;;;;;11.25;7.70;;;;;;;24.16;nan;95483.69;5035135;28;20238;-64
2023/10/01 07:19:23;;;;;;;13.55;7.90;;;;;;;25.10;nan;95483.72;5031137;28;20227;-65
2023/10/01 07:21:56;;;;;;;7.65;7.03;;;;;;;26.14;nan;95480.75;5034344;28;20202;-64
2023/10/01 07:24:24;;;;;;;14.73;7.50;;;;;;;27.50;nan;95476.97;5034293;28;20229;-64
2023/10/01 07:26:51;;;;;;;24.95;8.18;;;;;;;27.96;nan;95473.47;5034314;28;20348;-66
2023/10/01 07:29:18;;;;;;;8.05;7.25;;;;;;;27.43;nan;95476.75;5030167;28;20203;-65
2023/10/01 07:31:45;;;;;;;9.18;7.85;;;;;;;26.50;nan;95473.22;5032952;28;20310;-66
2023/10/01 07:34:13;;;;;;;11.48;8.35;;;;;;;25.71;nan;95479.31;5033453;28;20200;-68
2023/10/01 07:36:42;;;;;;;15.65;8.20;;;;;;;25.08;nan;95480.41;5033494;28;20305;-67
2023/10/01 07:39:13;;;;;;;14.35;9.13;;;;;;;25.19;nan;95479.50;5029880;28;20681;-68
2023/10/01 07:41:44;;;;;;;13.18;7.93;;;;;;;25.97;nan;95484.84;5033266;28;20208;-64
2023/10/01 07:44:11;;;;;;;16.98;9.52;;;;;;;26.52;nan;95481.72;5039737;28;20292;-66
2023/10/01 07:46:38;;;;;;;13.75;9.30;;;;;;;28.72;nan;95486.09;5042010;28;20209;-65
2023/10/01 07:49:05;;;;;;;12.57;11.18;;;;;;;31.63;nan;95479.91;5030469;28;20203;-62
2023/10/01 07:51:36;;;;;;;17.35;11.52;;;;;;;34.14;nan;95473.47;5032778;28;20264;-62
2023/10/01 07:54:09;;;;;;;14.63;8.50;;;;;;;35.55;nan;95462.91;5034633;28;20244;-65
2023/10/01 07:56:39;;;;;;;14.77;9.82;;;;;;;37.05;nan;95468.78;5036557;28;20207;-66
2023/10/01 07:59:28;;;;;;;11.65;10.45;;;;;;;38.38;nan;95472.66;5031607;28;20212;-66
2023/10/01 08:02:09;;;;;;;14.55;9.93;;;;;;;38.89;nan;95477.03;5030453;28;20206;-64
2023/10/01 08:07:39;;;;;;;13.23;8.00;;;;;;;38.98;nan;95478.38;5013408;28;20215;-63
2023/10/01 08:10:16;;;;;;;14.20;9.07;;;;;;;39.00;nan;95478.16;5036899;28;20293;-66
2023/10/01 08:13:04;;;;;;;10.50;8.27;;;;;;;39.46;nan;95469.81;5044053;28;20210;-67
2023/10/01 08:15:31;;;;;;;10.32;9.23;;;;;;;40.03;nan;95475.72;5043344;28;20202;-65
2023/10/01 08:18:19;;;;;;;11.43;9.45;;;;;;;39.88;nan;95472.59;5044034;28;20295;-67
2023/10/01 08:20:57;;;;;;;11.52;8.63;;;;;;;39.85;nan;95473.03;5040526;28;20194;-67
2023/10/01 08:23:26;;;;;;;14.63;12.95;;;;;;;39.11;nan;95475.63;5042250;28;20319;-63
2023/10/01 08:25:54;;;;;;;17.40;11.02;;;;;;;38.83;nan;95477.09;5039161;28;20272;-66
2023/10/01 08:28:29;;;;;;;11.20;9.20;;;;;;;38.47;nan;95470.56;5037661;28;20233;-66
2023/10/01 08:31:01;;;;;;;12.13;9.98;;;;;;;38.33;nan;95469.84;5039625;28;20225;-67
2023/10/01 08:33:33;;;;;;;25.15;18.75;;;;;;;37.72;nan;95470.31;5042210;28;20726;-65
2023/10/01 08:36:01;;;;;;;18.80;11.50;;;;;;;36.74;nan;95464.09;5039451;28;20201;-65
2023/10/01 08:38:29;;;;;;;22.77;14.23;;;;;;;36.39;nan;95468.72;5041297;28;20207;-65
2023/10/01 08:41:00;;;;;;;19.95;11.93;;;;;;;35.65;nan;95460.69;5043538;28;20202;-65
2023/10/01 08:43:34;;;;;;;14.85;9.55;;;;;;;35.08;nan;95467.06;5042640;28;20231;-60
2023/10/01 08:46:09;;;;;;;16.00;11.43;;;;;;;34.36;nan;95466.44;5040266;28;20203;-63
2023/10/01 08:48:39;;;;;;;16.70;10.02;;;;;;;33.91;nan;95468.34;5043573;28;20202;-66
2023/10/01 08:51:11;;;;;;;16.67;8.88;;;;;;;33.24;nan;95475.50;5037359;28;20246;-65
2023/10/01 08:53:41;;;;;;;10.90;8.85;;;;;;;32.65;nan;95462.25;5040158;28;20211;-64
2023/10/01 08:56:13;;;;;;;13.75;9.25;;;;;;;32.01;nan;95467.72;5041923;28;20752;-67
2023/10/01 08:58:49;;;;;;;10.13;9.07;;;;;;;31.55;nan;95466.78;5039807;28;20213;-64
2023/10/01 09:01:20;;;;;;;14.07;8.75;;;;;;;31.06;nan;95474.78;5040225;28;20297;-64
2023/10/01 09:03:48;;;;;;;16.80;8.82;;;;;;;30.42;nan;95479.06;5041319;28;20223;-64
2023/10/01 09:06:25;;;;;;;12.98;8.77;;;;;;;29.52;nan;95473.69;5042523;28;20668;-65
2023/10/01 09:08:54;;;;;;;11.45;8.30;;;;;;;28.79;nan;95466.19;5036874;28;20202;-67
2023/10/01 09:11:35;;;;;;;11.00;8.57;;;;;;;28.16;nan;95466.31;5038561;28;20202;-67
2023/10/01 09:14:17;;;;;;;13.15;9.10;;;;;;;27.95;nan;95469.22;5041792;28;20257;-65
2023/10/01 09:16:45;;;;;;;15.85;8.95;;;;;;;28.17;nan;95474.97;5039105;28;20212;-66
2023/10/01 09:21:56;;;;;;;11.82;8.60;;;;;;;28.12;nan;95472.81;5031991;28;20199;-64
2023/10/01 09:24:38;;;;;;;19.10;7.93;;;;;;;27.78;nan;95470.81;5034614;28;20284;-65
2023/10/01 09:27:18;;;;;;;12.05;8.85;;;;;;;27.55;nan;95474.75;5031521;28;20281;-63
2023/10/01 09:29:48;;;;;;;11.20;8.90;;;;;;;27.40;nan;95478.81;5036036;28;20209;-66
2023/10/01 09:32:19;;;;;;;12.35;10.45;;;;;;;27.29;nan;95486.81;5035482;28;20223;-66
2023/10/01 09:34:58;;;;;;;18.38;11.32;;;;;;;27.14;nan;95473.44;5038000;28;20750;-65
2023/10/01 09:37:34;;;;;;;15.02;10.75;;;;;;;27.06;nan;95468.09;5036496;28;20249;-64
2023/10/01 09:40:13;;;;;;;16.48;11.48;;;;;;;27.14;nan;95477.81;5038330;28;20227;-65
2023/10/01 09:42:45;;;;;;;23.60;13.20;;;;;;;26.67;nan;95472.53;5034183;28;20225;-64
2023/10/01 09:45:27;;;;;;;21.10;12.35;;;;;;;26.31;nan;95469.69;5034658;28;20702;-64
2023/10/01 09:48:04;;;;;;;20.42;13.10;;;;;;;26.13;nan;95479.09;5034748;28;20253;-62
2023/10/01 09:50:39;;;;;;;21.40;11.50;;;;;;;26.02;nan;95467.03;5038981;28;20218;-65
2023/10/01 09:53:12;;;;;;;17.73;12.20;;;;;;;26.12;nan;95467.03;5032555;28;20199;-65
2023/10/01 09:55:47;;;;;;;19.13;11.60;;;;;;;26.22;nan;95473.09;5034017;28;20673;-63
2023/10/01 09:58:24;;;;;;;17.02;12.00;;;;;;;26.22;nan;95462.66;5035402;28;20243;-65
2023/10/01 10:00:53;;;;;;;16.80;13.13;;;;;;;26.38;nan;95457.75;5035951;28;20191;-65
2023/10/01 10:03:20;;;;;;;13.07;11.35;;;;;;;26.54;nan;95477.22;5035310;28;20250;-66
2023/10/01 10:05:47;;;;;;;15.18;10.52;;;;;;;26.59;nan;95469.81;5042137;28;20669;-64
2023/10/01 10:08:15;;;;;;;12.70;9.90;;;;;;;26.37;nan;95463.91;5038192;28;20298;-66
2023/10/01 10:10:48;;;;;;;16.80;10.15;;;;;;;26.75;nan;95459.63;5037498;28;20282;-65
2023/10/01 10:13:38;;;;;;;17.23;9.85;;;;;;;26.78;nan;95454.13;5035495;28;20191;-64
2023/10/01 10:19:09;;;;;;;13.90;9.00;;;;;;;26.73;nan;95451.09;5033684;28;20719;-65
2023/10/01 10:22:10;;;;;;;14.57;9.75;;;;;;;26.79;nan;95455.75;5034960;28;20604;-65
2023/10/01 10:25:10;;;;;;;13.75;9.90;;;;;;;26.75;nan;95446.56;5029451;28;20223;-65
2023/10/01 10:27:47;;;;;;;15.43;9.73;;;;;;;26.73;nan;95440.69;5032371;28;20243;-65
2023/10/01 10:30:21;;;;;;;17.02;9.45;;;;;;;26.69;nan;95434.94;5031993;28;20207;-65
2023/10/01 10:33:38;;;;;;;15.82;9.55;;;;;;;26.58;nan;95431.66;5033463;28;20692;-63
2023/10/01 10:36:51;;;;;;;12.52;10.40;;;;;;;26.59;nan;95422.88;5031899;28;20200;-66
2023/10/01 10:40:04;;;;;;;12.10;9.63;;;;;;;26.28;nan;95419.59;4973919;28;20206;-63
2023/10/01 10:42:33;;;;;;;12.30;8.93;;;;;;;26.14;nan;95415.63;4973118;28;20240;-65
2023/10/01 10:45:21;;;;;;;14.15;9.45;;;;;;;26.31;nan;95424.56;5022892;28;20231;-65
2023/10/01 10:48:05;;;;;;;11.35;8.25;;;;;;;26.43;nan;95424.28;5031998;28;20705;-63
2023/10/01 10:50:48;;;;;;;10.38;8.90;;;;;;;26.47;nan;95413.59;5040112;28;20204;-63
2023/10/01 10:53:20;;;;;;;14.90;9.38;;;;;;;26.60;nan;95403.66;5033280;28;20212;-64
2023/10/01 10:55:54;;;;;;;11.70;9.65;;;;;;;26.78;nan;95405.41;5035916;28;20754;-62
2023/10/01 10:58:22;;;;;;;15.90;9.75;;;;;;;27.06;nan;95397.66;5034621;28;20202;-64
2023/10/01 11:00:49;;;;;;;14.65;9.68;;;;;;;27.14;nan;95392.53;5039917;28;20221;-64
2023/10/01 11:03:16;;;;;;;13.73;9.38;;;;;;;27.35;nan;95393.13;5035801;28;20205;-65
2023/10/01 11:05:50;;;;;;;10.98;9.77;;;;;;;27.47;nan;95395.53;5035690;28;20817;-65
2023/10/01 11:08:25;;;;;;;12.65;9.38;;;;;;;27.50;nan;95387.41;5036927;28;20238;-67
2023/10/01 11:10:55;;;;;;;11.98;9.02;;;;;;;27.47;nan;95393.72;5033898;28;20295;-64
2023/10/01 11:13:36;;;;;;;15.68;9.45;;;;;;;27.26;nan;95393.16;5031769;28;20199;-68
2023/10/01 11:16:14;;;;;;;14.10;8.93;;;;;;;27.05;nan;95394.22;5033214;28;20315;-61
2023/10/01 11:18:44;;;;;;;10.25;8.45;;;;;;;26.51;nan;95394.91;5036816;28;20246;-65
2023/10/01 11:21:20;;;;;;;11.60;9.10;;;;;;;26.17;nan;95397.13;5034548;28;20296;-64
2023/10/01 11:23:53;;;;;;;13.10;9.32;;;;;;;26.01;nan;95392.44;5031828;28;20230;-64
2023/10/01 11:26:27;;;;;;;12.93;9.57;;;;;;;25.68;nan;95390.25;5038422;28;20582;-65
2023/10/01 11:28:57;;;;;;;11.90;8.52;;;;;;;25.36;nan;95387.84;5032568;28;20202;-67
2023/10/01 11:31:24;;;;;;;17.83;12.43;;;;;;;25.09;nan;95397.06;5026127;28;20238;-64
2023/10/01 11:33:58;;;;;;;30.83;20.42;;;;;;;24.87;nan;95397.22;5034124;28;20210;-61
2023/10/01 11:36:35;;;;;;;23.23;15.63;;;;;;;24.76;nan;95392.09;5040365;28;20362;-62
2023/10/01 11:39:04;;;;;;;21.05;16.63;;;;;;;24.74;nan;95394.84;5036758;28;20207;-60
2023/10/01 11:41:40;;;;;;;20.58;13.77;;;;;;;24.62;nan;95389.84;5031961;28;20268;-63
2023/10/01 11:44:08;;;;;;;15.80;11.68;;;;;;;24.40;nan;95391.63;5034324;28;20230;-61
2023/10/01 11:46:38;;;;;;;13.88;12.05;;;;;;;24.37;nan;95386.69;5035604;28;20207;-62
2023/10/01 11:49:16;;;;;;;14.95;10.75;;;;;;;24.33;nan;95380.09;5029148;28;20207;-61
2023/10/01 11:51:45;;;;;;;14.68;10.50;;;;;;;24.39;nan;95369.19;5031772;28;20209;-63
2023/10/01 11:54:14;;;;;;;13.75;9.80;;;;;;;24.45;nan;95383.47;5029716;28;20200;-62
2023/10/01 11:56:46;;;;;;;16.92;11.45;;;;;;;24.64;nan;95372.34;5035754;28;20272;-62
2023/10/01 11:59:20;;;;;;;11.52;10.10;;;;;;;24.62;nan;95379.44;5031311;28;20200;-61
2023/10/01 12:01:49;;;;;;;10.20;8.80;;;;;;;24.51;nan;95382.09;5032327;28;20230;-63
2023/10/01 12:04:21;;;;;;;11.35;9.00;;;;;;;24.33;nan;95382.69;5029586;28;20730;-61
2023/10/01 12:06:50;;;;;;;12.32;9.13;;;;;;;24.05;nan;95380.69;5035568;28;20629;-61
2023/10/01 12:09:19;;;;;;;12.95;8.82;;;;;;;23.89;nan;95372.50;5033416;28;20288;-61
2023/10/01 12:12:03;;;;;;;13.45;8.80;;;;;;;23.73;nan;95373.75;5028983;28;20281;-62
2023/10/01 12:14:30;;;;;;;11.13;9.43;;;;;;;23.48;nan;95381.81;5029252;28;21567;-62
2023/10/01 12:17:00;;;;;;;13.65;8.18;;;;;;;23.39;nan;95372.16;5033885;28;20261;-62
2023/10/01 12:19:29;;;;;;;19.00;11.20;;;;;;;23.31;nan;95371.94;5031865;28;20199;-62
2023/10/01 12:22:09;;;;;;;19.80;10.48;;;;;;;23.27;nan;95368.75;5028765;28;21846;-61
2023/10/01 12:24:44;;;;;;;17.00;13.48;;;;;;;23.18;nan;95373.88;5028636;28;20220;-62
2023/10/01 12:27:37;;;;;;;24.38;16.73;;;;;;;23.14;nan;95372.44;5031453;28;20580;-61